sensor_id;sensor_type;location;lat;lon;timestamp;temperature;humidity
8711;DHT22;4392;47.400;8.062;2023-04-07T00:00:31;10.70;71.40
8711;DHT22;4392;47.400;8.062;2023-04-07T00:02:59;10.70;72.40
8711;DHT22;4392;47.400;8.062;2023-04-07T00:05:31;10.70;73.30
8711;DHT22;4392;47.400;8.062;2023-04-07T00:08:00;10.70;73.50
8711;DHT22;4392;47.400;8.062;2023-04-07T00:10:30;10.70;74.00
8711;DHT22;4392;47.400;8.062;2023-04-07T00:12:56;10.80;74.10
8711;DHT22;4392;47.400;8.062;2023-04-07T00:15:21;10.60;74.40
8711;DHT22;4392;47.400;8.062;2023-04-07T00:17:47;10.60;75.00
8711;DHT22;4392;47.400;8.062;2023-04-07T00:20:16;10.50;75.10
8711;DHT22;4392;47.400;8.062;2023-04-07T00:22:47;10.40;75.90
8711;DHT22;4392;47.400;8.062;2023-04-07T00:25:19;10.50;76.20
8711;DHT22;4392;47.400;8.062;2023-04-07T00:27:45;10.50;76.50
8711;DHT22;4392;47.400;8.062;2023-04-07T00:30:11;10.50;76.80
8711;DHT22;4392;47.400;8.062;2023-04-07T00:32:36;10.40;77.30
8711;DHT22;4392;47.400;8.062;2023-04-07T00:35:02;10.40;76.50
8711;DHT22;4392;47.400;8.062;2023-04-07T00:37:31;10.40;76.00
8711;DHT22;4392;47.400;8.062;2023-04-07T00:39:57;10.30;75.70
8711;DHT22;4392;47.400;8.062;2023-04-07T00:42:23;10.40;77.20
8711;DHT22;4392;47.400;8.062;2023-04-07T00:44:49;10.50;77.00
8711;DHT22;4392;47.400;8.062;2023-04-07T00:47:15;10.50;76.60
8711;DHT22;4392;47.400;8.062;2023-04-07T00:49:44;10.50;75.80
8711;DHT22;4392;47.400;8.062;2023-04-07T00:52:10;10.50;76.10
8711;DHT22;4392;47.400;8.062;2023-04-07T00:54:38;10.30;77.00
8711;DHT22;4392;47.400;8.062;2023-04-07T00:57:14;10.10;79.80
8711;DHT22;4392;47.400;8.062;2023-04-07T00:59:40;10.20;79.30
8711;DHT22;4392;47.400;8.062;2023-04-07T01:02:25;10.30;77.80
8711;DHT22;4392;47.400;8.062;2023-04-07T01:05:15;10.10;76.50
8711;DHT22;4392;47.400;8.062;2023-04-07T01:15:54;10.20;75.80
8711;DHT22;4392;47.400;8.062;2023-04-07T01:18:32;10.20;73.80
8711;DHT22;4392;47.400;8.062;2023-04-07T01:21:13;10.30;74.70
8711;DHT22;4392;47.400;8.062;2023-04-07T01:26:34;10.20;77.80
8711;DHT22;4392;47.400;8.062;2023-04-07T01:32:01;9.90;79.80
8711;DHT22;4392;47.400;8.062;2023-04-07T01:34:36;10.10;78.70
8711;DHT22;4392;47.400;8.062;2023-04-07T01:37:07;10.30;77.60
8711;DHT22;4392;47.400;8.062;2023-04-07T01:39:34;10.40;76.30
8711;DHT22;4392;47.400;8.062;2023-04-07T01:42:08;10.40;77.00
8711;DHT22;4392;47.400;8.062;2023-04-07T01:44:35;10.20;75.70
8711;DHT22;4392;47.400;8.062;2023-04-07T01:47:01;10.10;75.80
8711;DHT22;4392;47.400;8.062;2023-04-07T01:49:33;9.90;77.60
8711;DHT22;4392;47.400;8.062;2023-04-07T01:52:00;10.30;79.30
8711;DHT22;4392;47.400;8.062;2023-04-07T01:54:27;10.40;76.10
8711;DHT22;4392;47.400;8.062;2023-04-07T01:56:58;10.30;77.00
8711;DHT22;4392;47.400;8.062;2023-04-07T01:59:24;10.40;77.70
8711;DHT22;4392;47.400;8.062;2023-04-07T02:01:49;10.40;76.70
8711;DHT22;4392;47.400;8.062;2023-04-07T02:04:31;10.30;76.80
8711;DHT22;4392;47.400;8.062;2023-04-07T02:07:26;10.30;76.90
8711;DHT22;4392;47.400;8.062;2023-04-07T02:10:00;10.10;77.70
8711;DHT22;4392;47.400;8.062;2023-04-07T02:12:28;9.90;79.60
8711;DHT22;4392;47.400;8.062;2023-04-07T02:14:55;9.90;80.00
8711;DHT22;4392;47.400;8.062;2023-04-07T02:17:26;9.80;81.30
8711;DHT22;4392;47.400;8.062;2023-04-07T02:19:53;9.80;82.70
8711;DHT22;4392;47.400;8.062;2023-04-07T02:22:20;9.70;84.20
8711;DHT22;4392;47.400;8.062;2023-04-07T02:24:48;9.60;84.50
8711;DHT22;4392;47.400;8.062;2023-04-07T02:27:14;9.90;84.40
8711;DHT22;4392;47.400;8.062;2023-04-07T02:29:42;10.00;83.10
8711;DHT22;4392;47.400;8.062;2023-04-07T02:32:08;10.00;83.20
8711;DHT22;4392;47.400;8.062;2023-04-07T02:34:36;10.00;83.40
8711;DHT22;4392;47.400;8.062;2023-04-07T02:37:02;9.90;82.20
8711;DHT22;4392;47.400;8.062;2023-04-07T02:39:28;9.90;83.40
8711;DHT22;4392;47.400;8.062;2023-04-07T02:41:53;9.80;90.00
8711;DHT22;4392;47.400;8.062;2023-04-07T02:44:19;9.80;88.00
8711;DHT22;4392;47.400;8.062;2023-04-07T02:46:45;9.90;84.60
8711;DHT22;4392;47.400;8.062;2023-04-07T02:49:16;9.90;82.60
8711;DHT22;4392;47.400;8.062;2023-04-07T02:51:42;9.60;82.60
8711;DHT22;4392;47.400;8.062;2023-04-07T02:54:07;9.70;83.30
8711;DHT22;4392;47.400;8.062;2023-04-07T02:56:33;9.80;82.90
8711;DHT22;4392;47.400;8.062;2023-04-07T02:58:59;9.90;83.00
8711;DHT22;4392;47.400;8.062;2023-04-07T03:01:30;9.70;83.60
8711;DHT22;4392;47.400;8.062;2023-04-07T03:03:59;9.80;83.80
8711;DHT22;4392;47.400;8.062;2023-04-07T03:06:28;9.90;84.30
8711;DHT22;4392;47.400;8.062;2023-04-07T03:08:53;9.90;83.80
8711;DHT22;4392;47.400;8.062;2023-04-07T03:11:19;9.80;84.60
8711;DHT22;4392;47.400;8.062;2023-04-07T03:13:45;9.30;85.90
8711;DHT22;4392;47.400;8.062;2023-04-07T03:16:11;9.20;85.10
8711;DHT22;4392;47.400;8.062;2023-04-07T03:18:41;9.30;84.70
8711;DHT22;4392;47.400;8.062;2023-04-07T03:21:07;9.30;83.20
8711;DHT22;4392;47.400;8.062;2023-04-07T03:23:33;9.30;82.80
8711;DHT22;4392;47.400;8.062;2023-04-07T03:26:01;9.40;83.40
8711;DHT22;4392;47.400;8.062;2023-04-07T03:28:30;9.50;83.60
8711;DHT22;4392;47.400;8.062;2023-04-07T03:30:56;9.40;82.70
8711;DHT22;4392;47.400;8.062;2023-04-07T03:33:22;9.20;84.00
8711;DHT22;4392;47.400;8.062;2023-04-07T03:35:47;9.10;85.00
8711;DHT22;4392;47.400;8.062;2023-04-07T03:38:13;9.00;86.30
8711;DHT22;4392;47.400;8.062;2023-04-07T03:40:44;9.10;84.30
8711;DHT22;4392;47.400;8.062;2023-04-07T03:43:10;9.20;85.20
8711;DHT22;4392;47.400;8.062;2023-04-07T03:45:37;9.30;84.40
8711;DHT22;4392;47.400;8.062;2023-04-07T03:48:03;9.30;83.70
8711;DHT22;4392;47.400;8.062;2023-04-07T03:50:38;9.40;83.50
8711;DHT22;4392;47.400;8.062;2023-04-07T03:53:04;9.60;83.60
8711;DHT22;4392;47.400;8.062;2023-04-07T03:55:30;9.60;83.50
8711;DHT22;4392;47.400;8.062;2023-04-07T03:57:56;9.30;83.80
8711;DHT22;4392;47.400;8.062;2023-04-07T04:00:27;9.30;85.50
8711;DHT22;4392;47.400;8.062;2023-04-07T04:02:52;9.10;85.90
8711;DHT22;4392;47.400;8.062;2023-04-07T04:05:18;9.00;87.40
8711;DHT22;4392;47.400;8.062;2023-04-07T04:07:44;9.00;87.90
8711;DHT22;4392;47.400;8.062;2023-04-07T04:10:12;9.20;87.70
8711;DHT22;4392;47.400;8.062;2023-04-07T04:12:41;9.20;87.10
8711;DHT22;4392;47.400;8.062;2023-04-07T04:15:07;9.20;87.10
8711;DHT22;4392;47.400;8.062;2023-04-07T04:17:35;9.20;86.90
8711;DHT22;4392;47.400;8.062;2023-04-07T04:20:05;9.20;86.80
8711;DHT22;4392;47.400;8.062;2023-04-07T04:22:31;9.30;86.70
8711;DHT22;4392;47.400;8.062;2023-04-07T04:24:58;9.30;86.70
8711;DHT22;4392;47.400;8.062;2023-04-07T04:27:23;9.30;86.30
8711;DHT22;4392;47.400;8.062;2023-04-07T04:29:52;9.40;86.40
8711;DHT22;4392;47.400;8.062;2023-04-07T04:32:19;9.50;86.40
8711;DHT22;4392;47.400;8.062;2023-04-07T04:34:44;9.60;85.90
8711;DHT22;4392;47.400;8.062;2023-04-07T04:37:10;9.50;85.90
8711;DHT22;4392;47.400;8.062;2023-04-07T04:39:36;9.50;85.70
8711;DHT22;4392;47.400;8.062;2023-04-07T04:42:07;9.50;85.50
8711;DHT22;4392;47.400;8.062;2023-04-07T04:44:33;9.30;86.30
8711;DHT22;4392;47.400;8.062;2023-04-07T04:47:01;9.20;85.90
8711;DHT22;4392;47.400;8.062;2023-04-07T04:49:29;9.00;86.20
8711;DHT22;4392;47.400;8.062;2023-04-07T04:51:58;9.10;86.40
8711;DHT22;4392;47.400;8.062;2023-04-07T04:54:24;9.10;85.40
8711;DHT22;4392;47.400;8.062;2023-04-07T04:56:50;9.00;84.80
8711;DHT22;4392;47.400;8.062;2023-04-07T04:59:19;8.90;85.50
8711;DHT22;4392;47.400;8.062;2023-04-07T05:01:45;8.80;86.30
8711;DHT22;4392;47.400;8.062;2023-04-07T05:04:13;9.00;87.50
8711;DHT22;4392;47.400;8.062;2023-04-07T05:06:39;9.10;87.60
8711;DHT22;4392;47.400;8.062;2023-04-07T05:09:09;9.10;86.10
8711;DHT22;4392;47.400;8.062;2023-04-07T05:11:35;9.20;88.30
8711;DHT22;4392;47.400;8.062;2023-04-07T05:14:01;9.20;85.80
8711;DHT22;4392;47.400;8.062;2023-04-07T05:16:26;8.90;87.60
8711;DHT22;4392;47.400;8.062;2023-04-07T05:18:52;8.90;87.90
8711;DHT22;4392;47.400;8.062;2023-04-07T05:21:18;8.90;85.80
8711;DHT22;4392;47.400;8.062;2023-04-07T05:23:46;9.00;87.60
8711;DHT22;4392;47.400;8.062;2023-04-07T05:26:12;9.00;88.40
8711;DHT22;4392;47.400;8.062;2023-04-07T05:28:38;9.00;87.70
8711;DHT22;4392;47.400;8.062;2023-04-07T05:31:10;9.10;87.70
8711;DHT22;4392;47.400;8.062;2023-04-07T05:33:38;9.20;86.90
8711;DHT22;4392;47.400;8.062;2023-04-07T05:36:05;9.00;87.50
8711;DHT22;4392;47.400;8.062;2023-04-07T05:38:36;9.00;88.20
8711;DHT22;4392;47.400;8.062;2023-04-07T05:41:02;9.00;88.20
8711;DHT22;4392;47.400;8.062;2023-04-07T05:43:27;9.00;88.50
8711;DHT22;4392;47.400;8.062;2023-04-07T05:45:53;8.70;89.00
8711;DHT22;4392;47.400;8.062;2023-04-07T05:48:19;8.60;89.30
8711;DHT22;4392;47.400;8.062;2023-04-07T05:50:47;8.70;90.40
8711;DHT22;4392;47.400;8.062;2023-04-07T05:53:14;8.50;91.00
8711;DHT22;4392;47.400;8.062;2023-04-07T05:55:43;8.70;90.90
8711;DHT22;4392;47.400;8.062;2023-04-07T05:58:15;8.60;91.10
8711;DHT22;4392;47.400;8.062;2023-04-07T06:00:40;8.10;92.30
8711;DHT22;4392;47.400;8.062;2023-04-07T06:03:06;7.40;94.90
8711;DHT22;4392;47.400;8.062;2023-04-07T06:05:32;7.90;94.30
8711;DHT22;4392;47.400;8.062;2023-04-07T06:08:04;8.30;93.50
8711;DHT22;4392;47.400;8.062;2023-04-07T06:10:30;8.60;93.10
8711;DHT22;4392;47.400;8.062;2023-04-07T06:12:56;8.70;92.00
8711;DHT22;4392;47.400;8.062;2023-04-07T06:15:21;8.80;91.80
8711;DHT22;4392;47.400;8.062;2023-04-07T06:17:50;8.90;91.30
8711;DHT22;4392;47.400;8.062;2023-04-07T06:20:16;8.90;91.10
8711;DHT22;4392;47.400;8.062;2023-04-07T06:22:42;9.00;90.90
8711;DHT22;4392;47.400;8.062;2023-04-07T06:25:08;9.00;90.20
8711;DHT22;4392;47.400;8.062;2023-04-07T06:27:34;8.90;88.60
8711;DHT22;4392;47.400;8.062;2023-04-07T06:30:06;8.80;88.50
8711;DHT22;4392;47.400;8.062;2023-04-07T06:32:32;8.70;87.80
8711;DHT22;4392;47.400;8.062;2023-04-07T06:34:58;8.70;88.00
8711;DHT22;4392;47.400;8.062;2023-04-07T06:37:30;8.60;89.00
8711;DHT22;4392;47.400;8.062;2023-04-07T06:39:56;8.40;90.10
8711;DHT22;4392;47.400;8.062;2023-04-07T06:42:21;8.40;90.60
8711;DHT22;4392;47.400;8.062;2023-04-07T06:44:47;8.50;90.60
8711;DHT22;4392;47.400;8.062;2023-04-07T06:47:17;8.60;90.10
8711;DHT22;4392;47.400;8.062;2023-04-07T06:49:43;8.60;90.10
8711;DHT22;4392;47.400;8.062;2023-04-07T06:52:08;8.70;90.00
8711;DHT22;4392;47.400;8.062;2023-04-07T06:54:34;8.70;90.00
8711;DHT22;4392;47.400;8.062;2023-04-07T06:57:00;8.90;90.50
8711;DHT22;4392;47.400;8.062;2023-04-07T06:59:36;9.00;90.00
8711;DHT22;4392;47.400;8.062;2023-04-07T07:02:08;9.10;89.60
8711;DHT22;4392;47.400;8.062;2023-04-07T07:04:34;9.00;88.70
8711;DHT22;4392;47.400;8.062;2023-04-07T07:07:00;8.90;88.90
8711;DHT22;4392;47.400;8.062;2023-04-07T07:09:31;8.90;89.40
8711;DHT22;4392;47.400;8.062;2023-04-07T07:11:56;9.00;88.80
8711;DHT22;4392;47.400;8.062;2023-04-07T07:14:22;9.00;88.10
8711;DHT22;4392;47.400;8.062;2023-04-07T07:16:48;8.90;88.80
8711;DHT22;4392;47.400;8.062;2023-04-07T07:19:13;8.90;88.80
8711;DHT22;4392;47.400;8.062;2023-04-07T07:21:40;8.90;88.90
8711;DHT22;4392;47.400;8.062;2023-04-07T07:24:08;9.00;89.60
8711;DHT22;4392;47.400;8.062;2023-04-07T07:26:34;9.10;89.70
8711;DHT22;4392;47.400;8.062;2023-04-07T07:29:00;9.00;89.90
8711;DHT22;4392;47.400;8.062;2023-04-07T07:31:28;9.10;90.20
8711;DHT22;4392;47.400;8.062;2023-04-07T07:33:59;9.10;90.30
8711;DHT22;4392;47.400;8.062;2023-04-07T07:36:27;9.10;90.40
8711;DHT22;4392;47.400;8.062;2023-04-07T07:38:52;9.00;90.80
8711;DHT22;4392;47.400;8.062;2023-04-07T07:41:18;8.70;91.20
8711;DHT22;4392;47.400;8.062;2023-04-07T07:43:45;8.80;91.60
8711;DHT22;4392;47.400;8.062;2023-04-07T07:46:11;8.70;92.10
8711;DHT22;4392;47.400;8.062;2023-04-07T07:48:36;8.80;92.60
8711;DHT22;4392;47.400;8.062;2023-04-07T07:51:02;8.80;93.00
8711;DHT22;4392;47.400;8.062;2023-04-07T07:53:28;8.80;93.50
8711;DHT22;4392;47.400;8.062;2023-04-07T07:55:59;8.90;93.60
8711;DHT22;4392;47.400;8.062;2023-04-07T07:58:25;8.70;94.80
8711;DHT22;4392;47.400;8.062;2023-04-07T08:00:51;8.70;95.50
8711;DHT22;4392;47.400;8.062;2023-04-07T08:03:17;8.70;95.70
8711;DHT22;4392;47.400;8.062;2023-04-07T08:05:47;8.60;96.30
8711;DHT22;4392;47.400;8.062;2023-04-07T08:08:13;8.50;97.40
8711;DHT22;4392;47.400;8.062;2023-04-07T08:10:39;8.50;98.00
8711;DHT22;4392;47.400;8.062;2023-04-07T08:13:04;8.60;98.20
8711;DHT22;4392;47.400;8.062;2023-04-07T08:15:32;8.60;98.60
8711;DHT22;4392;47.400;8.062;2023-04-07T08:18:01;8.60;98.10
8711;DHT22;4392;47.400;8.062;2023-04-07T08:20:30;8.60;97.60
8711;DHT22;4392;47.400;8.062;2023-04-07T08:23:01;8.50;97.10
8711;DHT22;4392;47.400;8.062;2023-04-07T08:25:28;8.50;97.70
8711;DHT22;4392;47.400;8.062;2023-04-07T08:27:53;8.50;97.40
8711;DHT22;4392;47.400;8.062;2023-04-07T08:30:19;8.40;98.20
8711;DHT22;4392;47.400;8.062;2023-04-07T08:32:49;8.30;99.70
8711;DHT22;4392;47.400;8.062;2023-04-07T08:35:15;8.20;99.90
8711;DHT22;4392;47.400;8.062;2023-04-07T08:37:43;8.10;99.90
8711;DHT22;4392;47.400;8.062;2023-04-07T08:40:09;7.90;99.90
8711;DHT22;4392;47.400;8.062;2023-04-07T08:42:39;8.10;99.90
8711;DHT22;4392;47.400;8.062;2023-04-07T08:45:08;7.80;99.90
8711;DHT22;4392;47.400;8.062;2023-04-07T08:47:35;7.90;99.90
8711;DHT22;4392;47.400;8.062;2023-04-07T08:50:07;7.90;99.90
8711;DHT22;4392;47.400;8.062;2023-04-07T08:55:03;7.80;99.90
8711;DHT22;4392;47.400;8.062;2023-04-07T08:57:34;7.70;99.90
8711;DHT22;4392;47.400;8.062;2023-04-07T09:00:02;7.50;99.90
8711;DHT22;4392;47.400;8.062;2023-04-07T09:02:46;7.50;99.90
8711;DHT22;4392;47.400;8.062;2023-04-07T09:05:14;7.20;99.90
8711;DHT22;4392;47.400;8.062;2023-04-07T09:07:40;7.30;99.90
8711;DHT22;4392;47.400;8.062;2023-04-07T09:10:13;7.50;99.90
8711;DHT22;4392;47.400;8.062;2023-04-07T09:12:40;7.50;99.90
8711;DHT22;4392;47.400;8.062;2023-04-07T09:15:06;7.50;99.90
8711;DHT22;4392;47.400;8.062;2023-04-07T09:17:38;7.30;99.90
8711;DHT22;4392;47.400;8.062;2023-04-07T09:20:11;7.20;99.90
8711;DHT22;4392;47.400;8.062;2023-04-07T09:22:42;7.10;99.90
8711;DHT22;4392;47.400;8.062;2023-04-07T09:25:17;7.00;99.90
8711;DHT22;4392;47.400;8.062;2023-04-07T09:28:04;7.00;99.90
8711;DHT22;4392;47.400;8.062;2023-04-07T09:30:51;7.00;99.90
8711;DHT22;4392;47.400;8.062;2023-04-07T09:33:26;6.90;99.90
8711;DHT22;4392;47.400;8.062;2023-04-07T09:35:52;6.90;99.90
8711;DHT22;4392;47.400;8.062;2023-04-07T09:38:18;6.90;99.90
8711;DHT22;4392;47.400;8.062;2023-04-07T09:40:44;6.80;99.90
8711;DHT22;4392;47.400;8.062;2023-04-07T09:43:18;6.70;99.90
8711;DHT22;4392;47.400;8.062;2023-04-07T09:45:43;6.90;99.90
8711;DHT22;4392;47.400;8.062;2023-04-07T09:48:19;6.90;99.90
8711;DHT22;4392;47.400;8.062;2023-04-07T09:50:46;6.80;99.90
8711;DHT22;4392;47.400;8.062;2023-04-07T09:53:20;6.80;99.90
8711;DHT22;4392;47.400;8.062;2023-04-07T09:55:51;6.70;99.90
8711;DHT22;4392;47.400;8.062;2023-04-07T09:58:17;6.80;99.90
8711;DHT22;4392;47.400;8.062;2023-04-07T10:00:46;6.90;99.90
8711;DHT22;4392;47.400;8.062;2023-04-07T10:03:13;7.00;99.90
8711;DHT22;4392;47.400;8.062;2023-04-07T10:05:39;7.00;99.90
8711;DHT22;4392;47.400;8.062;2023-04-07T10:08:11;7.00;99.90
8711;DHT22;4392;47.400;8.062;2023-04-07T10:10:40;6.90;99.90
8711;DHT22;4392;47.400;8.062;2023-04-07T10:13:14;6.90;99.90
8711;DHT22;4392;47.400;8.062;2023-04-07T10:15:46;6.90;99.90
8711;DHT22;4392;47.400;8.062;2023-04-07T10:18:13;6.90;99.90
8711;DHT22;4392;47.400;8.062;2023-04-07T10:20:40;6.90;99.90
8711;DHT22;4392;47.400;8.062;2023-04-07T10:24:08;7.00;99.90
8711;DHT22;4392;47.400;8.062;2023-04-07T10:26:27;7.00;99.90
8711;DHT22;4392;47.400;8.062;2023-04-07T10:29:01;7.20;99.90
8711;DHT22;4392;47.400;8.062;2023-04-07T10:31:36;7.30;99.90
8711;DHT22;4392;47.400;8.062;2023-04-07T10:34:04;7.40;99.90
8711;DHT22;4392;47.400;8.062;2023-04-07T10:36:30;7.40;99.90
8711;DHT22;4392;47.400;8.062;2023-04-07T10:41:39;7.40;99.90
8711;DHT22;4392;47.400;8.062;2023-04-07T10:44:07;7.30;99.90
8711;DHT22;4392;47.400;8.062;2023-04-07T10:47:03;7.00;99.90
8711;DHT22;4392;47.400;8.062;2023-04-07T10:49:34;7.30;99.90
8711;DHT22;4392;47.400;8.062;2023-04-07T10:54:38;7.60;99.90
8711;DHT22;4392;47.400;8.062;2023-04-07T10:57:25;7.60;99.90
8711;DHT22;4392;47.400;8.062;2023-04-07T11:00:14;7.70;99.90
8711;DHT22;4392;47.400;8.062;2023-04-07T11:02:40;7.80;99.90
8711;DHT22;4392;47.400;8.062;2023-04-07T11:05:19;7.80;99.90
8711;DHT22;4392;47.400;8.062;2023-04-07T11:07:51;7.90;99.90
8711;DHT22;4392;47.400;8.062;2023-04-07T11:10:22;7.90;99.90
8711;DHT22;4392;47.400;8.062;2023-04-07T11:13:03;7.90;99.90
8711;DHT22;4392;47.400;8.062;2023-04-07T11:15:29;7.90;99.90
8711;DHT22;4392;47.400;8.062;2023-04-07T11:18:15;7.80;99.90
8711;DHT22;4392;47.400;8.062;2023-04-07T11:20:52;7.90;99.90
8711;DHT22;4392;47.400;8.062;2023-04-07T11:23:20;7.90;99.90
8711;DHT22;4392;47.400;8.062;2023-04-07T11:26:00;8.00;99.90
8711;DHT22;4392;47.400;8.062;2023-04-07T11:28:26;8.00;99.90
8711;DHT22;4392;47.400;8.062;2023-04-07T11:30:55;8.10;99.90
8711;DHT22;4392;47.400;8.062;2023-04-07T11:33:26;8.00;99.90
8711;DHT22;4392;47.400;8.062;2023-04-07T11:35:53;8.00;99.90
8711;DHT22;4392;47.400;8.062;2023-04-07T11:38:23;8.00;99.90
8711;DHT22;4392;47.400;8.062;2023-04-07T11:40:50;7.90;99.90
8711;DHT22;4392;47.400;8.062;2023-04-07T11:43:17;7.70;99.90
8711;DHT22;4392;47.400;8.062;2023-04-07T11:48:35;7.70;99.90
8711;DHT22;4392;47.400;8.062;2023-04-07T11:51:04;7.50;99.90
8711;DHT22;4392;47.400;8.062;2023-04-07T11:53:36;7.70;99.90
8711;DHT22;4392;47.400;8.062;2023-04-07T11:56:18;7.80;99.90
8711;DHT22;4392;47.400;8.062;2023-04-07T11:58:52;7.80;99.90
8711;DHT22;4392;47.400;8.062;2023-04-07T12:01:18;7.70;99.90
8711;DHT22;4392;47.400;8.062;2023-04-07T12:04:03;7.90;99.90
8711;DHT22;4392;47.400;8.062;2023-04-07T12:06:35;8.10;99.90
8711;DHT22;4392;47.400;8.062;2023-04-07T12:09:19;8.20;99.90
8711;DHT22;4392;47.400;8.062;2023-04-07T12:11:52;8.30;99.90
8711;DHT22;4392;47.400;8.062;2023-04-07T12:14:18;8.20;99.90
8711;DHT22;4392;47.400;8.062;2023-04-07T12:16:44;8.10;99.90
8711;DHT22;4392;47.400;8.062;2023-04-07T12:19:10;8.00;99.90
8711;DHT22;4392;47.400;8.062;2023-04-07T12:21:35;7.80;99.90
8711;DHT22;4392;47.400;8.062;2023-04-07T12:24:07;8.30;99.90
8711;DHT22;4392;47.400;8.062;2023-04-07T12:26:32;8.10;99.90
8711;DHT22;4392;47.400;8.062;2023-04-07T12:28:58;8.20;99.90
8711;DHT22;4392;47.400;8.062;2023-04-07T12:31:31;8.50;99.90
8711;DHT22;4392;47.400;8.062;2023-04-07T12:33:57;8.70;99.90
8711;DHT22;4392;47.400;8.062;2023-04-07T12:36:24;8.80;99.90
8711;DHT22;4392;47.400;8.062;2023-04-07T12:38:57;8.90;99.90
8711;DHT22;4392;47.400;8.062;2023-04-07T12:41:24;8.80;99.90
8711;DHT22;4392;47.400;8.062;2023-04-07T12:43:55;8.80;99.90
8711;DHT22;4392;47.400;8.062;2023-04-07T12:46:22;8.90;99.90
8711;DHT22;4392;47.400;8.062;2023-04-07T12:48:48;8.90;99.90
8711;DHT22;4392;47.400;8.062;2023-04-07T12:51:14;8.90;99.90
8711;DHT22;4392;47.400;8.062;2023-04-07T12:53:41;8.90;99.90
8711;DHT22;4392;47.400;8.062;2023-04-07T12:56:10;8.90;99.90
8711;DHT22;4392;47.400;8.062;2023-04-07T12:58:38;9.10;99.90
8711;DHT22;4392;47.400;8.062;2023-04-07T13:01:04;9.20;99.90
8711;DHT22;4392;47.400;8.062;2023-04-07T13:03:30;9.20;99.90
8711;DHT22;4392;47.400;8.062;2023-04-07T13:05:56;9.20;99.90
8711;DHT22;4392;47.400;8.062;2023-04-07T13:08:29;9.00;99.90
8711;DHT22;4392;47.400;8.062;2023-04-07T13:10:55;9.00;99.90
8711;DHT22;4392;47.400;8.062;2023-04-07T13:13:22;8.90;99.90
8711;DHT22;4392;47.400;8.062;2023-04-07T13:15:48;9.00;99.90
8711;DHT22;4392;47.400;8.062;2023-04-07T13:18:16;9.00;99.90
8711;DHT22;4392;47.400;8.062;2023-04-07T13:20:45;9.00;99.90
8711;DHT22;4392;47.400;8.062;2023-04-07T13:23:11;9.00;99.90
8711;DHT22;4392;47.400;8.062;2023-04-07T13:25:45;8.70;99.90
8711;DHT22;4392;47.400;8.062;2023-04-07T13:28:11;8.70;99.90
8711;DHT22;4392;47.400;8.062;2023-04-07T13:30:40;8.70;99.90
8711;DHT22;4392;47.400;8.062;2023-04-07T13:33:06;8.60;99.90
8711;DHT22;4392;47.400;8.062;2023-04-07T13:35:34;8.50;99.90
8711;DHT22;4392;47.400;8.062;2023-04-07T13:38:01;8.60;99.90
8711;DHT22;4392;47.400;8.062;2023-04-07T13:40:33;8.70;99.90
8711;DHT22;4392;47.400;8.062;2023-04-07T13:43:01;8.60;99.90
8711;DHT22;4392;47.400;8.062;2023-04-07T13:45:30;8.60;99.90
8711;DHT22;4392;47.400;8.062;2023-04-07T13:47:57;8.50;99.90
8711;DHT22;4392;47.400;8.062;2023-04-07T13:50:23;8.40;99.90
8711;DHT22;4392;47.400;8.062;2023-04-07T13:52:55;8.60;99.90
8711;DHT22;4392;47.400;8.062;2023-04-07T13:55:21;8.70;99.90
8711;DHT22;4392;47.400;8.062;2023-04-07T13:57:46;8.70;99.90
8711;DHT22;4392;47.400;8.062;2023-04-07T14:00:13;8.80;99.90
8711;DHT22;4392;47.400;8.062;2023-04-07T14:02:39;8.60;99.90
8711;DHT22;4392;47.400;8.062;2023-04-07T14:05:08;8.70;99.90
8711;DHT22;4392;47.400;8.062;2023-04-07T14:07:40;8.80;99.90
8711;DHT22;4392;47.400;8.062;2023-04-07T14:10:05;8.80;99.90
8711;DHT22;4392;47.400;8.062;2023-04-07T14:12:31;8.90;99.90
8711;DHT22;4392;47.400;8.062;2023-04-07T14:14:58;8.90;99.90
8711;DHT22;4392;47.400;8.062;2023-04-07T14:17:32;8.80;99.90
8711;DHT22;4392;47.400;8.062;2023-04-07T14:19:57;8.80;99.90
8711;DHT22;4392;47.400;8.062;2023-04-07T14:22:23;8.80;99.90
8711;DHT22;4392;47.400;8.062;2023-04-07T14:24:51;8.80;99.90
8711;DHT22;4392;47.400;8.062;2023-04-07T14:27:22;8.90;99.90
8711;DHT22;4392;47.400;8.062;2023-04-07T14:29:47;8.90;99.90
8711;DHT22;4392;47.400;8.062;2023-04-07T14:32:14;8.90;99.90
8711;DHT22;4392;47.400;8.062;2023-04-07T14:34:45;8.90;99.90
8711;DHT22;4392;47.400;8.062;2023-04-07T14:37:10;8.80;99.90
8711;DHT22;4392;47.400;8.062;2023-04-07T14:39:36;8.70;99.90
8711;DHT22;4392;47.400;8.062;2023-04-07T14:42:09;8.70;99.90
8711;DHT22;4392;47.400;8.062;2023-04-07T14:44:35;8.70;99.90
8711;DHT22;4392;47.400;8.062;2023-04-07T14:47:03;8.60;99.90
8711;DHT22;4392;47.400;8.062;2023-04-07T14:49:37;8.70;99.90
8711;DHT22;4392;47.400;8.062;2023-04-07T14:52:11;8.70;99.90
8711;DHT22;4392;47.400;8.062;2023-04-07T14:54:38;8.70;99.90
8711;DHT22;4392;47.400;8.062;2023-04-07T14:57:07;8.60;99.90
8711;DHT22;4392;47.400;8.062;2023-04-07T14:59:33;8.50;99.90
8711;DHT22;4392;47.400;8.062;2023-04-07T15:02:09;8.50;99.90
8711;DHT22;4392;47.400;8.062;2023-04-07T15:04:34;8.50;99.90
8711;DHT22;4392;47.400;8.062;2023-04-07T15:07:00;8.60;99.90
8711;DHT22;4392;47.400;8.062;2023-04-07T15:09:31;8.60;99.90
8711;DHT22;4392;47.400;8.062;2023-04-07T15:11:57;8.60;99.90
8711;DHT22;4392;47.400;8.062;2023-04-07T15:14:28;8.80;99.90
8711;DHT22;4392;47.400;8.062;2023-04-07T15:16:54;8.60;99.90
8711;DHT22;4392;47.400;8.062;2023-04-07T15:19:19;8.50;99.90
8711;DHT22;4392;47.400;8.062;2023-04-07T15:21:45;8.70;99.90
8711;DHT22;4392;47.400;8.062;2023-04-07T15:24:11;9.40;99.90
8711;DHT22;4392;47.400;8.062;2023-04-07T15:26:42;9.30;99.90
8711;DHT22;4392;47.400;8.062;2023-04-07T15:29:08;9.70;99.90
8711;DHT22;4392;47.400;8.062;2023-04-07T15:31:34;10.20;99.90
8711;DHT22;4392;47.400;8.062;2023-04-07T15:33:59;10.40;99.90
8711;DHT22;4392;47.400;8.062;2023-04-07T15:36:31;10.20;99.90
8711;DHT22;4392;47.400;8.062;2023-04-07T15:39:01;10.30;99.90
8711;DHT22;4392;47.400;8.062;2023-04-07T15:41:33;10.60;99.90
8711;DHT22;4392;47.400;8.062;2023-04-07T15:43:59;10.30;99.90
8711;DHT22;4392;47.400;8.062;2023-04-07T15:46:25;10.00;99.90
8711;DHT22;4392;47.400;8.062;2023-04-07T15:48:57;9.80;99.90
8711;DHT22;4392;47.400;8.062;2023-04-07T15:51:23;9.70;99.90
8711;DHT22;4392;47.400;8.062;2023-04-07T15:53:54;9.60;99.90
8711;DHT22;4392;47.400;8.062;2023-04-07T15:56:19;9.50;99.90
8711;DHT22;4392;47.400;8.062;2023-04-07T15:58:50;9.40;99.90
8711;DHT22;4392;47.400;8.062;2023-04-07T16:01:15;9.40;99.90
8711;DHT22;4392;47.400;8.062;2023-04-07T16:03:41;9.60;99.90
8711;DHT22;4392;47.400;8.062;2023-04-07T16:06:07;9.60;99.90
8711;DHT22;4392;47.400;8.062;2023-04-07T16:08:32;9.60;99.90
8711;DHT22;4392;47.400;8.062;2023-04-07T16:10:59;9.70;99.90
8711;DHT22;4392;47.400;8.062;2023-04-07T16:13:25;9.70;99.90
8711;DHT22;4392;47.400;8.062;2023-04-07T16:15:56;9.80;99.90
8711;DHT22;4392;47.400;8.062;2023-04-07T16:18:22;9.80;99.90
8711;DHT22;4392;47.400;8.062;2023-04-07T16:20:47;9.70;99.90
8711;DHT22;4392;47.400;8.062;2023-04-07T16:23:13;9.80;99.90
8711;DHT22;4392;47.400;8.062;2023-04-07T16:25:39;9.80;99.90
8711;DHT22;4392;47.400;8.062;2023-04-07T16:28:05;9.90;99.90
8711;DHT22;4392;47.400;8.062;2023-04-07T16:30:30;9.90;99.90
8711;DHT22;4392;47.400;8.062;2023-04-07T16:32:59;9.80;99.90
8711;DHT22;4392;47.400;8.062;2023-04-07T16:35:25;9.70;99.90
8711;DHT22;4392;47.400;8.062;2023-04-07T16:37:51;9.60;99.90
8711;DHT22;4392;47.400;8.062;2023-04-07T16:40:19;9.70;99.90
8711;DHT22;4392;47.400;8.062;2023-04-07T16:42:46;9.70;99.90
8711;DHT22;4392;47.400;8.062;2023-04-07T16:45:11;9.70;99.90
8711;DHT22;4392;47.400;8.062;2023-04-07T16:47:38;9.70;99.90